createdAt,value
2023-02-08T00:01:20.716Z,85.84
2023-02-08T00:03:49.072Z,86.00
2023-02-08T00:06:17.616Z,86.08
2023-02-08T00:08:46.191Z,85.98
2023-02-08T00:11:13.964Z,85.97
2023-02-08T00:13:42.796Z,85.80
2023-02-08T00:16:12.776Z,85.96
2023-02-08T00:18:41.411Z,86.27
2023-02-08T00:21:14.336Z,86.22
2023-02-08T00:23:42.430Z,86.25
2023-02-08T00:26:10.476Z,86.10
2023-02-08T00:28:38.760Z,86.00
2023-02-08T00:31:06.934Z,86.26
2023-02-08T00:33:35.592Z,85.88
2023-02-08T00:36:07.814Z,86.17
2023-02-08T00:38:36.085Z,86.09
2023-02-08T00:41:03.963Z,86.06
2023-02-08T00:43:32.125Z,86.10
2023-02-08T01:02:07.102Z,86.05
2023-02-08T01:04:35.042Z,86.49
2023-02-08T01:07:02.808Z,86.57
2023-02-08T01:09:32.059Z,86.22
2023-02-08T01:11:59.913Z,86.22
2023-02-08T01:14:28.160Z,85.98
2023-02-08T01:16:55.917Z,86.04
2023-02-08T01:19:24.407Z,86.09
2023-02-08T01:21:52.198Z,86.36
2023-02-08T01:24:19.946Z,86.24
2023-02-08T01:26:47.946Z,86.17
2023-02-08T01:29:16.054Z,86.30
2023-02-08T01:31:46.483Z,86.55
2023-02-08T01:34:14.370Z,86.45
2023-02-08T01:36:44.301Z,86.39
2023-02-08T01:39:12.622Z,86.48
2023-02-08T01:41:44.384Z,86.44
2023-02-08T01:44:12.156Z,86.19
2023-02-08T01:46:42.343Z,86.06
2023-02-08T01:49:33.155Z,86.08
2023-02-08T01:52:23.516Z,85.88
2023-02-08T01:55:00.804Z,85.88
2023-02-08T01:57:29.329Z,85.95
2023-02-08T02:00:02.382Z,86.12
2023-02-08T02:02:43.863Z,86.15
2023-02-08T02:05:12.142Z,86.14
2023-02-08T02:07:41.109Z,86.21
2023-02-08T02:10:35.033Z,86.01
2023-02-08T02:13:19.771Z,86.14
2023-02-08T02:15:50.315Z,86.44
2023-02-08T02:18:24.648Z,86.21
2023-02-08T02:21:03.121Z,86.35
2023-02-08T02:23:39.881Z,86.00
2023-02-08T02:26:22.652Z,86.18
2023-02-08T02:29:18.249Z,86.16
2023-02-08T02:31:52.056Z,86.17
2023-02-08T02:34:31.824Z,86.00
2023-02-08T02:37:12.233Z,86.20
2023-02-08T02:39:45.841Z,86.18
2023-02-08T02:43:21.684Z,85.96
2023-02-08T02:46:27.289Z,86.06
2023-02-08T02:49:19.826Z,86.39
2023-02-08T02:52:06.293Z,86.42
2023-02-08T02:54:40.469Z,86.82
2023-02-08T02:57:12.611Z,86.46
2023-02-08T02:59:41.678Z,86.51
2023-02-08T03:02:10.451Z,86.61
2023-02-08T03:04:41.408Z,86.22
2023-02-08T03:07:17.644Z,86.26
2023-02-08T03:09:57.313Z,86.55
2023-02-08T03:13:17.901Z,86.83
2023-02-08T03:16:02.077Z,86.98
2023-02-08T03:18:48.352Z,86.57
2023-02-08T03:21:25.298Z,86.77
2023-02-08T03:24:06.165Z,86.64
2023-02-08T03:26:39.268Z,86.70
2023-02-08T03:29:30.812Z,86.58
2023-02-08T03:32:09.287Z,86.78
2023-02-08T03:34:46.186Z,86.65
2023-02-08T03:37:16.556Z,86.33
2023-02-08T03:39:47.218Z,86.37
2023-02-08T03:42:24.824Z,86.90
2023-02-08T03:45:02.916Z,86.88
2023-02-08T03:47:37.570Z,87.15
2023-02-08T03:50:09.606Z,86.51
2023-02-08T03:52:38.824Z,86.64
2023-02-08T03:55:16.372Z,86.70
2023-02-08T03:57:44.056Z,86.79
2023-02-08T04:00:15.149Z,86.80
2023-02-08T04:02:52.032Z,86.91
2023-02-08T04:05:21.795Z,87.03
2023-02-08T04:07:50.534Z,86.84
2023-02-08T04:10:18.510Z,87.43
2023-02-08T04:12:48.919Z,86.79
2023-02-08T04:15:17.376Z,86.69
2023-02-08T04:17:45.611Z,86.34
2023-02-08T04:20:13.642Z,87.02
2023-02-08T04:22:41.433Z,87.30
2023-02-08T04:25:09.199Z,87.22
2023-02-08T04:27:36.960Z,87.19
2023-02-08T04:30:05.631Z,87.77
2023-02-08T04:32:33.644Z,87.72
2023-02-08T04:35:01.599Z,87.29
2023-02-08T04:37:29.461Z,88.00
2023-02-08T04:39:57.172Z,87.82
2023-02-08T04:42:24.990Z,88.12
2023-02-08T04:44:52.759Z,87.92
2023-02-08T04:47:20.532Z,87.56
2023-02-08T04:49:48.261Z,87.70
2023-02-08T04:52:16.000Z,87.66
2023-02-08T04:54:43.767Z,87.46
2023-02-08T04:57:15.322Z,87.21
2023-02-08T04:59:43.131Z,87.19
2023-02-08T05:02:10.863Z,87.40
2023-02-08T05:04:38.655Z,87.39
2023-02-08T05:07:06.452Z,87.36
2023-02-08T05:09:34.181Z,87.22
2023-02-08T05:12:01.891Z,87.30
2023-02-08T05:14:29.681Z,87.41
2023-02-08T05:16:57.394Z,87.35
2023-02-08T05:19:25.132Z,87.31
2023-02-08T05:21:52.992Z,87.36
2023-02-08T05:24:20.783Z,87.38
2023-02-08T05:26:48.561Z,87.72
2023-02-08T05:29:17.323Z,88.28
2023-02-08T05:31:45.144Z,88.26
2023-02-08T05:34:12.961Z,88.41
2023-02-08T05:36:40.773Z,88.27
2023-02-08T05:39:08.570Z,88.20
2023-02-08T05:41:36.505Z,88.50
2023-02-08T05:44:06.899Z,88.32
2023-02-08T05:46:37.067Z,88.24
2023-02-08T05:49:06.183Z,88.07
2023-02-08T05:51:34.080Z,88.13
2023-02-08T05:54:01.855Z,88.08
2023-02-08T05:56:29.838Z,88.06
2023-02-08T05:59:00.794Z,88.09
2023-02-08T06:01:28.628Z,88.06
2023-02-08T06:03:56.920Z,87.92
2023-02-08T06:06:24.778Z,88.34
2023-02-08T06:08:52.563Z,88.17
2023-02-08T06:11:20.576Z,88.10
2023-02-08T06:13:48.528Z,87.85
2023-02-08T06:16:19.542Z,88.02
2023-02-08T06:18:47.625Z,88.29
2023-02-08T06:21:15.498Z,88.06
2023-02-08T06:23:43.176Z,88.24
2023-02-08T06:26:10.893Z,88.31
2023-02-08T06:28:38.880Z,88.02
2023-02-08T06:31:06.590Z,88.12
2023-02-08T06:33:34.545Z,88.24
2023-02-08T06:36:02.426Z,88.36
2023-02-08T06:38:30.124Z,88.30
2023-02-08T06:40:57.869Z,88.47
2023-02-08T06:43:26.021Z,88.13
2023-02-08T06:45:53.815Z,87.89
2023-02-08T06:48:21.545Z,87.68
2023-02-08T06:50:53.762Z,87.67
2023-02-08T06:53:21.626Z,87.74
2023-02-08T06:55:50.334Z,87.90
2023-02-08T06:58:18.861Z,87.74
2023-02-08T07:00:47.127Z,87.82
2023-02-08T07:03:17.486Z,87.69
2023-02-08T07:05:59.016Z,87.62
2023-02-08T07:08:33.786Z,87.56
2023-02-08T07:11:06.501Z,87.73
2023-02-08T07:13:34.483Z,87.45
2023-02-08T07:16:03.513Z,87.29
2023-02-08T07:18:31.655Z,87.30
2023-02-08T07:20:59.654Z,87.57
2023-02-08T07:23:27.917Z,87.43
2023-02-08T07:26:00.861Z,87.49
2023-02-08T07:28:29.775Z,87.44
2023-02-08T07:30:57.762Z,87.51
2023-02-08T07:33:26.387Z,87.24
2023-02-08T07:35:54.267Z,87.40
2023-02-08T07:38:21.997Z,87.16
2023-02-08T07:40:49.775Z,87.26
2023-02-08T07:43:17.487Z,87.20
2023-02-08T07:45:50.838Z,87.00
2023-02-08T07:48:18.679Z,87.14
2023-02-08T07:50:46.568Z,87.31
2023-02-08T07:53:14.390Z,86.96
2023-02-08T07:55:42.214Z,86.94
2023-02-08T07:58:09.947Z,86.75
2023-02-08T08:00:37.806Z,87.03
2023-02-08T08:03:05.754Z,86.72
2023-02-08T08:05:34.779Z,86.82
2023-02-08T08:08:02.921Z,86.92
2023-02-08T08:10:31.330Z,86.72
2023-02-08T08:12:59.112Z,86.49
2023-02-08T08:15:27.478Z,86.59
2023-02-08T08:17:55.580Z,86.71
2023-02-08T08:20:24.435Z,86.38
2023-02-08T08:22:52.259Z,86.53
2023-02-08T08:25:20.174Z,86.22
2023-02-08T08:27:48.156Z,86.06
2023-02-08T08:30:16.968Z,86.20
2023-02-08T08:32:44.845Z,86.05
2023-02-08T08:35:12.815Z,85.94
2023-02-08T08:37:40.800Z,85.73
2023-02-08T08:40:09.633Z,85.84
2023-02-08T08:42:39.871Z,85.98
2023-02-08T08:45:09.008Z,86.07
2023-02-08T08:47:37.010Z,85.66
2023-02-08T08:50:05.190Z,85.52
2023-02-08T08:52:32.924Z,85.74
2023-02-08T08:55:00.688Z,85.83
2023-02-08T08:57:28.454Z,85.29
2023-02-08T08:59:56.178Z,85.70
2023-02-08T09:02:23.925Z,85.71
2023-02-08T09:04:52.003Z,85.42
2023-02-08T09:07:19.844Z,85.44
2023-02-08T09:09:48.165Z,85.30
2023-02-08T09:12:16.178Z,84.83
2023-02-08T09:14:44.920Z,84.97
2023-02-08T09:17:12.701Z,84.69
2023-02-08T09:19:40.499Z,84.62
2023-02-08T09:22:08.601Z,84.47
2023-02-08T09:24:36.419Z,84.65
2023-02-08T09:27:04.453Z,84.41
2023-02-08T09:29:33.661Z,84.46
2023-02-08T09:32:01.496Z,83.78
2023-02-08T09:34:31.330Z,84.04
2023-02-08T09:36:59.041Z,84.12
2023-02-08T09:39:26.924Z,83.64
2023-02-08T09:42:33.134Z,83.84
2023-02-08T09:45:36.828Z,83.57
2023-02-08T09:48:35.139Z,83.54
2023-02-08T09:51:27.887Z,83.55
2023-02-08T09:54:08.121Z,83.52
2023-02-08T09:56:40.850Z,83.66
2023-02-08T09:59:31.479Z,84.08
2023-02-08T10:02:21.556Z,83.84
2023-02-08T10:04:52.040Z,83.18
2023-02-08T10:07:19.827Z,83.45
2023-02-08T10:09:48.065Z,83.40
2023-02-08T10:12:41.280Z,83.28
2023-02-08T10:15:30.663Z,83.20
2023-02-08T10:18:37.019Z,83.60
2023-02-08T10:21:19.962Z,83.45
2023-02-08T10:23:50.651Z,83.45
2023-02-08T10:26:47.103Z,83.09
2023-02-08T10:29:44.527Z,83.28
2023-02-08T10:32:27.388Z,82.95
2023-02-08T10:35:10.497Z,82.91
2023-02-08T10:37:42.117Z,82.99
2023-02-08T10:40:21.020Z,82.32
2023-02-08T10:42:58.282Z,82.58
2023-02-08T10:45:38.200Z,82.60
2023-02-08T10:48:12.703Z,81.81
2023-02-08T10:50:43.169Z,81.67
2023-02-08T10:53:16.687Z,79.98
2023-02-08T10:55:47.049Z,79.82
2023-02-08T10:58:19.117Z,80.01
2023-02-08T11:00:49.370Z,80.27
2023-02-08T11:03:29.094Z,78.96
2023-02-08T11:05:57.074Z,76.65
2023-02-08T11:08:27.767Z,76.46
2023-02-08T11:11:09.295Z,75.28
2023-02-08T11:13:42.456Z,75.12
2023-02-08T11:16:22.504Z,74.28
2023-02-08T11:18:52.526Z,74.41
2023-02-08T11:21:40.090Z,74.31
2023-02-08T11:24:23.123Z,74.42
2023-02-08T11:26:51.026Z,72.98
2023-02-08T11:29:30.780Z,73.26
2023-02-08T11:32:02.547Z,72.84
2023-02-08T11:34:35.333Z,72.33
2023-02-08T11:37:13.646Z,72.55
2023-02-08T11:39:49.777Z,72.77
2023-02-08T11:42:41.893Z,70.58
2023-02-08T11:45:21.188Z,70.36
2023-02-08T11:47:50.165Z,71.12
2023-02-08T11:50:31.460Z,69.80
2023-02-08T11:53:05.546Z,69.85
2023-02-08T11:55:35.044Z,70.40
2023-02-08T11:58:18.333Z,70.14
2023-02-08T12:01:00.147Z,69.59
2023-02-08T12:03:38.823Z,70.08
2023-02-08T12:06:28.173Z,68.96
2023-02-08T12:09:20.874Z,67.99
2023-02-08T12:11:56.506Z,67.08
2023-02-08T12:15:02.413Z,65.92
2023-02-08T12:17:48.959Z,65.17
2023-02-08T12:20:36.242Z,65.43
2023-02-08T12:23:09.736Z,64.39
2023-02-08T12:25:47.373Z,64.37
2023-02-08T12:28:35.701Z,65.48
2023-02-08T12:31:11.064Z,64.70
2023-02-08T12:33:57.224Z,64.84
2023-02-08T12:37:25.415Z,65.08
2023-02-08T12:40:46.419Z,64.88
2023-02-08T12:43:53.427Z,65.14
2023-02-08T12:46:27.412Z,65.30
2023-02-08T12:49:14.187Z,65.38
2023-02-08T12:52:01.402Z,64.18
2023-02-08T12:55:03.149Z,64.55
2023-02-08T12:57:32.851Z,65.20
2023-02-08T13:00:21.357Z,64.01
2023-02-08T13:03:31.934Z,63.32
2023-02-08T13:06:05.738Z,63.82
2023-02-08T13:08:48.137Z,62.60
2023-02-08T13:11:35.741Z,62.07
2023-02-08T13:14:10.374Z,62.62
2023-02-08T13:16:46.962Z,63.65
2023-02-08T13:19:58.140Z,62.71
2023-02-08T13:22:32.016Z,62.36
2023-02-08T13:25:07.672Z,62.73
2023-02-08T13:27:36.139Z,63.83
2023-02-08T13:30:05.482Z,63.26
2023-02-08T13:32:44.179Z,63.73
2023-02-08T13:35:17.782Z,63.63
2023-02-08T13:37:58.460Z,63.16
2023-02-08T13:40:30.169Z,62.77
2023-02-08T13:43:01.437Z,61.90
2023-02-08T13:45:37.372Z,61.89
2023-02-08T13:48:07.427Z,63.35
2023-02-08T13:50:35.116Z,62.99
2023-02-08T13:53:04.524Z,62.93
2023-02-08T13:55:33.426Z,62.69
2023-02-08T13:58:14.254Z,63.62
2023-02-08T14:00:53.868Z,64.12
2023-02-08T14:03:30.921Z,63.85
2023-02-08T14:06:09.170Z,64.26
2023-02-08T14:08:39.895Z,64.11
2023-02-08T14:11:24.666Z,64.56
2023-02-08T14:14:17.894Z,64.27
2023-02-08T14:17:06.585Z,64.31
2023-02-08T14:19:37.090Z,65.49
2023-02-08T14:22:04.854Z,64.80
2023-02-08T14:24:38.932Z,65.46
2023-02-08T14:27:19.740Z,65.74
2023-02-08T14:29:59.485Z,65.82
2023-02-08T14:32:31.507Z,65.37
2023-02-08T14:35:04.099Z,65.30
2023-02-08T14:37:33.936Z,65.52
2023-02-08T14:40:16.855Z,65.81
2023-02-08T14:43:17.083Z,65.22
2023-02-08T14:45:46.741Z,66.30
2023-02-08T14:48:20.860Z,66.92
2023-02-08T14:51:31.938Z,67.20
2023-02-08T14:54:15.363Z,67.15
2023-02-08T14:56:55.086Z,67.72
2023-02-08T14:59:26.963Z,68.21
2023-02-08T15:01:59.666Z,68.68
2023-02-08T15:04:27.898Z,69.03
2023-02-08T15:07:13.836Z,69.05
2023-02-08T15:09:42.975Z,69.19
2023-02-08T15:12:16.566Z,69.34
2023-02-08T15:15:21.700Z,70.06
2023-02-08T15:17:52.242Z,70.49
2023-02-08T15:20:26.479Z,70.75
2023-02-08T15:23:20.959Z,70.92
2023-02-08T15:26:02.438Z,71.17
2023-02-08T15:28:33.718Z,71.33
2023-02-08T15:31:06.260Z,71.80
2023-02-08T15:33:34.737Z,72.13
2023-02-08T15:36:08.386Z,71.92
2023-02-08T15:38:38.847Z,72.08
2023-02-08T15:41:10.631Z,71.81
2023-02-08T15:43:40.257Z,71.82
2023-02-08T15:46:18.794Z,71.83
2023-02-08T15:48:48.780Z,72.23
2023-02-08T15:51:17.608Z,72.30
2023-02-08T15:53:48.783Z,72.40
2023-02-08T15:56:34.265Z,72.37
2023-02-08T15:59:07.763Z,72.57
2023-02-08T16:01:35.813Z,73.19
2023-02-08T16:04:12.633Z,72.98
2023-02-08T16:06:47.703Z,73.15
2023-02-08T16:09:22.373Z,73.35
2023-02-08T16:11:51.568Z,73.96
2023-02-08T16:14:26.971Z,74.03
2023-02-08T16:16:58.215Z,74.20
2023-02-08T16:19:33.956Z,74.17
2023-02-08T16:22:13.861Z,74.05
2023-02-08T16:24:41.738Z,74.32
2023-02-08T16:27:26.078Z,74.01
2023-02-08T16:29:54.015Z,73.93
2023-02-08T16:32:28.431Z,74.15
2023-02-08T16:34:56.626Z,74.11
2023-02-08T16:37:31.932Z,74.31
2023-02-08T16:40:02.453Z,74.60
2023-02-08T16:42:40.948Z,74.55
2023-02-08T16:45:12.809Z,74.37
2023-02-08T16:47:53.726Z,74.48
2023-02-08T16:50:24.626Z,74.41
2023-02-08T16:52:59.710Z,74.69
2023-02-08T16:55:30.854Z,74.55
2023-02-08T16:57:59.658Z,74.28
2023-02-08T17:00:35.338Z,74.39
2023-02-08T17:03:03.472Z,75.11
2023-02-08T17:05:36.580Z,75.42
2023-02-08T17:08:09.989Z,75.78
2023-02-08T17:10:38.773Z,75.46
2023-02-08T17:13:19.834Z,75.34
2023-02-08T17:15:50.635Z,75.40
2023-02-08T17:18:19.217Z,75.85
2023-02-08T17:20:47.185Z,76.00
2023-02-08T17:23:16.685Z,76.31
2023-02-08T17:25:45.073Z,77.01
2023-02-08T17:28:18.262Z,77.70
2023-02-08T17:30:47.384Z,77.83
2023-02-08T17:33:18.501Z,77.31
2023-02-08T17:35:49.268Z,77.30
2023-02-08T17:38:19.043Z,77.31
2023-02-08T17:40:47.216Z,77.12
2023-02-08T17:43:15.194Z,76.73
2023-02-08T17:45:44.575Z,76.40
2023-02-08T17:48:13.601Z,77.13
2023-02-08T17:50:48.107Z,77.24
2023-02-08T17:53:16.084Z,77.64
2023-02-08T17:55:45.761Z,77.69
2023-02-08T17:58:13.690Z,77.73
2023-02-08T18:00:41.743Z,78.15
2023-02-08T18:03:09.572Z,78.12
2023-02-08T18:05:37.669Z,77.42
2023-02-08T18:08:05.472Z,77.38
2023-02-08T18:10:33.440Z,77.48
2023-02-08T18:13:01.236Z,77.96
2023-02-08T18:15:29.004Z,78.67
2023-02-08T18:17:56.975Z,79.03
2023-02-08T18:20:25.097Z,78.90
2023-02-08T18:22:52.894Z,78.71
2023-02-08T18:25:20.812Z,78.12
2023-02-08T18:27:48.716Z,78.13
2023-02-08T18:30:16.489Z,77.71
2023-02-08T18:32:44.373Z,77.54
2023-02-08T18:35:12.660Z,78.30
2023-02-08T18:37:40.422Z,77.97
2023-02-08T18:40:09.142Z,78.76
2023-02-08T18:42:37.039Z,78.99
2023-02-08T18:45:05.833Z,78.93
2023-02-08T18:47:35.980Z,79.05
2023-02-08T18:50:04.196Z,78.24
2023-02-08T18:52:32.119Z,78.58
2023-02-08T18:55:00.014Z,78.73
2023-02-08T18:57:27.837Z,78.85
2023-02-08T18:59:56.126Z,78.96
2023-02-08T19:02:26.364Z,78.80
2023-02-08T19:04:54.254Z,78.88
2023-02-08T19:07:22.051Z,78.59
2023-02-08T19:09:49.939Z,78.98
2023-02-08T19:12:19.001Z,78.66
2023-02-08T19:14:50.757Z,78.82
2023-02-08T19:17:19.234Z,79.12
2023-02-08T19:19:47.721Z,78.32
2023-02-08T19:22:15.633Z,78.84
2023-02-08T19:24:43.419Z,78.56
2023-02-08T19:27:11.226Z,78.59
2023-02-08T19:29:39.111Z,79.15
2023-02-08T19:32:08.231Z,79.40
2023-02-08T19:34:36.012Z,79.54
2023-02-08T19:37:03.929Z,79.78
2023-02-08T19:39:31.752Z,79.78
2023-02-08T19:41:59.539Z,80.09
2023-02-08T19:44:30.294Z,80.07
2023-02-08T19:46:58.574Z,79.37
2023-02-08T19:49:28.267Z,79.52
2023-02-08T19:51:56.421Z,80.25
2023-02-08T19:54:24.600Z,81.41
2023-02-08T19:56:54.967Z,81.30
2023-02-08T19:59:26.799Z,81.72
2023-02-08T20:01:55.783Z,80.95
2023-02-08T20:04:24.497Z,81.18
2023-02-08T20:06:53.488Z,81.63
2023-02-08T20:09:21.295Z,82.21
2023-02-08T20:26:09.485Z,83.35
2023-02-08T20:28:39.187Z,82.81
2023-02-08T20:31:12.003Z,82.61
2023-02-08T20:33:38.509Z,81.91
2023-02-08T20:36:14.662Z,81.77
2023-02-08T20:38:41.339Z,81.91
2023-02-08T20:41:11.034Z,82.33
2023-02-08T20:43:37.599Z,81.88
2023-02-08T20:46:06.450Z,81.75
2023-02-08T20:48:33.217Z,81.45
2023-02-08T20:51:04.990Z,81.59
2023-02-08T20:53:31.656Z,82.38
2023-02-08T20:55:57.973Z,82.01
2023-02-08T20:58:24.539Z,81.24
2023-02-08T21:00:51.520Z,81.10
2023-02-08T21:03:18.038Z,81.37
2023-02-08T21:05:44.396Z,81.16
2023-02-08T21:08:10.735Z,81.20
2023-02-08T21:10:37.285Z,80.98
2023-02-08T21:13:03.706Z,82.15
2023-02-08T21:15:30.175Z,81.58
2023-02-08T21:17:56.702Z,81.87
2023-02-08T21:20:23.207Z,82.35
2023-02-08T21:22:49.622Z,81.75
2023-02-08T21:25:16.068Z,81.60
2023-02-08T21:27:42.478Z,81.20
2023-02-08T21:30:09.680Z,81.44
2023-02-08T21:32:36.052Z,81.25
2023-02-08T21:35:02.389Z,81.33
2023-02-08T21:37:28.715Z,81.14
2023-02-08T21:39:55.052Z,81.08
2023-02-08T21:42:21.370Z,81.81
2023-02-08T21:44:47.797Z,81.72
2023-02-08T21:47:14.119Z,82.58
2023-02-08T21:49:59.230Z,82.29
2023-02-08T21:52:44.295Z,82.69
2023-02-08T21:55:10.653Z,83.10
2023-02-08T21:57:40.440Z,82.67
2023-02-08T22:00:09.877Z,82.55
2023-02-08T22:02:43.121Z,81.37
2023-02-08T22:05:09.609Z,81.40
2023-02-08T22:07:48.754Z,81.53
2023-02-08T22:10:17.960Z,82.47
2023-02-08T22:12:46.532Z,82.84
2023-02-08T22:15:15.939Z,81.89
2023-02-08T22:17:43.008Z,82.67
2023-02-08T22:20:11.661Z,83.11
2023-02-08T22:22:38.213Z,83.22
2023-02-08T22:25:05.154Z,83.45
2023-02-08T22:27:31.791Z,82.89
2023-02-08T22:29:58.219Z,83.02
2023-02-08T22:32:24.620Z,83.36
2023-02-08T22:34:51.109Z,84.30
2023-02-08T22:37:17.658Z,84.62
2023-02-08T22:39:44.132Z,84.27
2023-02-08T22:42:13.410Z,84.39
2023-02-08T22:44:43.963Z,84.20
2023-02-08T22:47:12.392Z,84.03
2023-02-08T22:49:39.055Z,83.49
2023-02-08T22:52:08.151Z,83.08
2023-02-08T22:54:35.373Z,82.94
2023-02-08T22:57:03.292Z,82.84
2023-02-08T22:59:29.761Z,82.44
2023-02-08T23:01:56.967Z,82.48
2023-02-08T23:04:23.634Z,83.16
2023-02-08T23:06:50.252Z,83.24
2023-02-08T23:09:17.057Z,85.33
2023-02-08T23:11:43.457Z,83.76
2023-02-08T23:14:10.093Z,83.21
2023-02-08T23:16:37.232Z,83.09
2023-02-08T23:19:04.528Z,83.30
2023-02-08T23:21:31.110Z,83.55
2023-02-08T23:23:57.687Z,83.78
2023-02-08T23:26:24.307Z,83.92
2023-02-08T23:28:52.268Z,84.34
2023-02-08T23:31:20.191Z,84.36
2023-02-08T23:33:46.857Z,84.11
2023-02-08T23:36:16.549Z,83.65
2023-02-08T23:38:43.090Z,83.37
2023-02-08T23:41:19.486Z,83.09
2023-02-08T23:43:46.540Z,82.75
2023-02-08T23:46:16.810Z,83.15
2023-02-08T23:48:43.587Z,83.25
2023-02-08T23:51:10.022Z,82.97
2023-02-08T23:53:37.550Z,83.10
2023-02-08T23:56:07.560Z,83.48
2023-02-08T23:58:34.506Z,83.15
